createdAt,value
2018-06-19T00:00:40.349Z,15.90
2018-06-19T00:03:07.770Z,15.80
2018-06-19T00:05:35.260Z,15.70
2018-06-19T00:08:02.569Z,15.70
2018-06-19T00:10:30.639Z,15.80
2018-06-19T00:12:58.034Z,15.80
2018-06-19T00:15:25.862Z,15.70
2018-06-19T00:17:56.958Z,15.60
2018-06-19T00:20:24.382Z,15.60
2018-06-19T00:22:52.046Z,15.60
2018-06-19T00:25:19.470Z,15.60
2018-06-19T00:27:46.999Z,15.60
2018-06-19T00:30:14.427Z,15.50
2018-06-19T00:32:41.813Z,15.50
2018-06-19T00:35:09.207Z,15.50
2018-06-19T00:37:36.595Z,15.30
2018-06-19T00:40:03.979Z,15.30
2018-06-19T00:42:31.432Z,15.30
2018-06-19T00:44:58.945Z,15.20
2018-06-19T00:47:26.239Z,15.10
2018-06-19T00:52:21.083Z,15.10
2018-06-19T00:54:48.664Z,15.10
2018-06-19T00:57:16.175Z,14.90
2018-06-19T00:59:43.582Z,15.00
2018-06-19T01:02:10.960Z,14.90
2018-06-19T01:04:38.389Z,14.90
2018-06-19T01:07:06.030Z,14.90
2018-06-19T01:09:33.465Z,14.90
2018-06-19T01:12:00.920Z,14.90
2018-06-19T01:14:28.332Z,14.90
2018-06-19T01:16:55.723Z,14.90
2018-06-19T01:19:23.159Z,14.80
2018-06-19T01:21:50.576Z,14.80
2018-06-19T01:24:18.095Z,14.90
2018-06-19T01:26:45.563Z,15.00
2018-06-19T01:29:13.184Z,15.00
2018-06-19T01:31:40.586Z,15.00
2018-06-19T01:34:08.078Z,15.00
2018-06-19T01:36:35.517Z,15.00
2018-06-19T01:39:03.375Z,14.90
2018-06-19T01:41:30.841Z,14.80
2018-06-19T01:43:58.255Z,14.70
2018-06-19T01:46:25.595Z,14.70
2018-06-19T01:48:53.059Z,14.70
2018-06-19T01:53:47.788Z,14.70
2018-06-19T01:56:15.160Z,14.70
2018-06-19T01:58:42.603Z,14.70
2018-06-19T02:01:09.979Z,14.70
2018-06-19T02:03:37.349Z,14.70
2018-06-19T02:06:04.786Z,14.80
2018-06-19T02:08:32.131Z,14.80
2018-06-19T02:10:59.455Z,14.80
2018-06-19T02:13:26.872Z,14.80
2018-06-19T02:15:54.334Z,14.80
2018-06-19T02:18:21.792Z,14.80
2018-06-19T02:20:49.192Z,14.90
2018-06-19T02:23:16.589Z,14.90
2018-06-19T02:25:43.920Z,15.10
2018-06-19T02:28:11.428Z,15.00
2018-06-19T02:30:38.806Z,15.10
2018-06-19T02:33:06.198Z,15.10
2018-06-19T02:35:33.562Z,15.10
2018-06-19T02:38:00.906Z,15.10
2018-06-19T02:40:28.260Z,15.10
2018-06-19T02:42:55.712Z,15.10
2018-06-19T02:45:23.179Z,15.10
2018-06-19T02:47:50.534Z,15.20
2018-06-19T02:50:17.878Z,15.20
2018-06-19T02:52:45.288Z,15.30
2018-06-19T02:55:12.633Z,15.30
2018-06-19T02:57:40.763Z,15.30
2018-06-19T03:00:08.140Z,15.30
2018-06-19T03:02:35.537Z,15.30
2018-06-19T03:05:03.362Z,15.30
2018-06-19T03:07:30.749Z,15.30
2018-06-19T03:09:58.247Z,15.40
2018-06-19T03:12:25.705Z,15.40
2018-06-19T03:14:53.123Z,15.30
2018-06-19T03:17:20.583Z,15.30
2018-06-19T03:19:47.895Z,15.30
2018-06-19T03:22:15.355Z,15.30
2018-06-19T03:24:42.782Z,15.40
2018-06-19T03:27:10.172Z,15.40
2018-06-19T03:29:37.531Z,15.40
2018-06-19T03:32:04.997Z,15.30
2018-06-19T03:34:32.410Z,15.40
2018-06-19T03:36:59.834Z,15.50
2018-06-19T03:39:27.255Z,15.50
2018-06-19T03:41:54.752Z,15.60
2018-06-19T03:44:22.184Z,15.60
2018-06-19T03:46:49.552Z,15.60
2018-06-19T03:49:17.006Z,15.70
2018-06-19T03:51:44.481Z,15.80
2018-06-19T03:54:11.860Z,15.70
2018-06-19T03:56:39.248Z,15.60
2018-06-19T03:59:06.642Z,15.70
2018-06-19T04:01:34.027Z,15.70
2018-06-19T04:04:01.295Z,15.70
2018-06-19T04:06:30.507Z,15.70
2018-06-19T04:08:58.607Z,15.80
2018-06-19T04:11:25.973Z,15.80
2018-06-19T04:13:53.417Z,15.90
2018-06-19T04:16:20.792Z,15.90
2018-06-19T04:18:48.154Z,15.90
2018-06-19T04:21:15.667Z,16.00
2018-06-19T04:23:43.052Z,16.00
2018-06-19T04:26:10.383Z,16.00
2018-06-19T04:28:37.803Z,16.00
2018-06-19T04:31:05.282Z,16.00
2018-06-19T04:33:32.693Z,16.10
2018-06-19T04:35:59.990Z,16.10
2018-06-19T04:38:27.380Z,16.10
2018-06-19T04:40:54.769Z,16.10
2018-06-19T04:43:22.130Z,16.10
2018-06-19T04:45:49.532Z,16.10
2018-06-19T04:48:16.920Z,16.20
2018-06-19T04:50:44.327Z,16.30
2018-06-19T04:53:11.765Z,16.30
2018-06-19T04:55:39.289Z,16.30
2018-06-19T04:58:06.685Z,16.40
2018-06-19T05:00:33.982Z,16.50
2018-06-19T05:03:01.373Z,16.50
2018-06-19T05:05:28.694Z,16.60
2018-06-19T05:07:56.078Z,16.60
2018-06-19T05:10:23.366Z,16.70
2018-06-19T05:12:50.781Z,16.60
2018-06-19T05:15:18.264Z,16.70
2018-06-19T05:17:45.831Z,16.80
2018-06-19T05:20:13.834Z,16.80
2018-06-19T05:22:41.354Z,16.90
2018-06-19T05:25:08.838Z,16.90
2018-06-19T05:27:36.272Z,17.00
2018-06-19T05:30:03.778Z,17.10
2018-06-19T05:32:31.142Z,17.20
2018-06-19T05:34:58.641Z,17.30
2018-06-19T05:37:26.010Z,17.30
2018-06-19T05:39:53.355Z,17.30
2018-06-19T05:42:20.850Z,17.40
2018-06-19T05:44:48.357Z,17.60
2018-06-19T05:47:15.734Z,17.40
2018-06-19T05:49:43.058Z,17.60
2018-06-19T05:52:10.462Z,17.60
2018-06-19T05:54:37.916Z,17.70
2018-06-19T05:57:05.294Z,17.80
2018-06-19T05:59:32.702Z,17.90
2018-06-19T06:02:01.364Z,17.90
2018-06-19T06:04:31.660Z,18.10
2018-06-19T06:06:59.101Z,18.10
2018-06-19T06:09:26.441Z,18.10
2018-06-19T06:11:53.886Z,18.10
2018-06-19T06:14:21.266Z,18.40
2018-06-19T06:16:48.598Z,18.50
2018-06-19T06:19:16.023Z,18.80
2018-06-19T06:21:43.402Z,18.80
2018-06-19T06:24:10.770Z,19.00
2018-06-19T06:26:38.311Z,19.00
2018-06-19T06:29:05.722Z,19.10
2018-06-19T06:31:33.178Z,19.20
2018-06-19T06:34:00.563Z,19.30
2018-06-19T06:36:27.998Z,19.60
2018-06-19T06:38:55.382Z,19.60
2018-06-19T06:41:22.780Z,19.60
2018-06-19T06:43:50.167Z,19.80
2018-06-19T06:46:18.282Z,19.60
2018-06-19T06:48:45.950Z,19.60
2018-06-19T06:51:13.274Z,19.60
2018-06-19T06:53:40.685Z,19.60
2018-06-19T06:56:08.150Z,19.50
2018-06-19T06:58:35.568Z,19.60
2018-06-19T07:01:03.651Z,19.60
2018-06-19T07:03:31.803Z,19.70
2018-06-19T07:05:59.180Z,19.80
2018-06-19T07:08:26.505Z,19.70
2018-06-19T07:10:53.917Z,19.80
2018-06-19T07:13:21.281Z,19.80
2018-06-19T07:15:49.268Z,19.80
2018-06-19T07:18:17.470Z,19.80
2018-06-19T07:20:44.945Z,19.80
2018-06-19T07:23:12.413Z,19.90
2018-06-19T07:25:39.693Z,20.00
2018-06-19T07:28:07.077Z,19.90
2018-06-19T07:30:34.517Z,20.00
2018-06-19T07:33:01.964Z,20.20
2018-06-19T07:35:29.363Z,20.30
2018-06-19T07:37:56.830Z,20.30
2018-06-19T07:40:24.127Z,20.40
2018-06-19T07:42:51.497Z,20.50
2018-06-19T07:45:19.295Z,20.80
2018-06-19T07:47:46.751Z,21.00
2018-06-19T07:50:14.235Z,21.20
2018-06-19T07:52:41.603Z,21.20
2018-06-19T07:55:08.955Z,21.50
2018-06-19T07:57:36.290Z,21.50
2018-06-19T08:00:03.853Z,21.30
2018-06-19T08:02:31.212Z,21.10
2018-06-19T08:04:58.661Z,20.90
2018-06-19T08:07:26.064Z,20.90
2018-06-19T08:09:53.769Z,20.70
2018-06-19T08:12:21.153Z,20.80
2018-06-19T08:14:48.563Z,21.00
2018-06-19T08:17:15.963Z,20.90
2018-06-19T08:19:44.307Z,20.90
2018-06-19T08:22:11.740Z,20.80
2018-06-19T08:24:39.061Z,20.60
2018-06-19T08:27:06.556Z,20.80
2018-06-19T08:29:33.995Z,20.90
2018-06-19T08:32:01.335Z,20.90
2018-06-19T08:34:28.737Z,20.90
2018-06-19T08:36:56.074Z,21.20
2018-06-19T08:39:23.451Z,21.60
2018-06-19T08:41:50.940Z,21.80
2018-06-19T08:44:18.236Z,21.70
2018-06-19T08:46:45.616Z,21.50
2018-06-19T08:49:12.943Z,21.10
2018-06-19T08:51:40.422Z,21.00
2018-06-19T08:54:07.838Z,21.10
2018-06-19T08:56:35.587Z,21.10
2018-06-19T08:59:03.067Z,21.10
2018-06-19T09:01:30.805Z,21.30
2018-06-19T09:03:58.386Z,21.30
2018-06-19T09:06:25.914Z,21.30
2018-06-19T09:08:53.306Z,21.30
2018-06-19T09:11:20.656Z,21.40
2018-06-19T09:13:48.061Z,21.40
2018-06-19T09:16:15.361Z,21.40
2018-06-19T09:18:42.804Z,21.40
2018-06-19T09:21:10.949Z,21.30
2018-06-19T09:23:38.361Z,21.60
2018-06-19T09:26:05.813Z,21.80
2018-06-19T09:28:33.270Z,21.90
2018-06-19T09:31:00.630Z,21.80
2018-06-19T09:33:28.034Z,21.70
2018-06-19T09:35:55.315Z,21.60
2018-06-19T09:38:22.662Z,21.60
2018-06-19T09:40:49.978Z,21.60
2018-06-19T09:45:44.844Z,21.40
2018-06-19T09:48:12.293Z,21.30
2018-06-19T09:50:39.673Z,21.40
2018-06-19T09:53:07.117Z,21.40
2018-06-19T09:55:34.639Z,21.50
2018-06-19T09:58:02.530Z,21.50
2018-06-19T10:00:33.434Z,21.80
2018-06-19T10:03:00.833Z,22.30
2018-06-19T10:05:28.854Z,22.60
2018-06-19T10:07:56.297Z,22.80
2018-06-19T10:10:23.664Z,22.70
2018-06-19T10:12:51.113Z,22.60
2018-06-19T10:15:18.519Z,22.50
2018-06-19T10:17:45.907Z,22.50
2018-06-19T10:20:13.385Z,22.50
2018-06-19T10:22:40.838Z,22.60
2018-06-19T10:25:08.301Z,22.60
2018-06-19T10:27:35.781Z,22.50
2018-06-19T10:30:03.271Z,22.60
2018-06-19T10:32:30.662Z,22.60
2018-06-19T10:34:58.164Z,22.80
2018-06-19T10:37:25.570Z,22.70
2018-06-19T10:39:53.130Z,22.60
2018-06-19T10:42:20.511Z,22.70
2018-06-19T10:44:48.016Z,22.80
2018-06-19T10:47:15.494Z,22.60
2018-06-19T10:49:42.928Z,22.60
2018-06-19T10:52:10.356Z,22.70
2018-06-19T10:54:38.085Z,22.80
2018-06-19T10:57:05.771Z,23.00
2018-06-19T10:59:33.209Z,23.20
2018-06-19T11:02:00.563Z,23.20
2018-06-19T11:04:27.973Z,22.80
2018-06-19T11:06:55.850Z,22.80
2018-06-19T11:09:23.214Z,23.00
2018-06-19T11:11:50.687Z,22.90
2018-06-19T11:14:18.071Z,22.90
2018-06-19T11:16:45.455Z,23.00
2018-06-19T11:19:12.871Z,23.10
2018-06-19T11:21:40.244Z,23.00
2018-06-19T11:24:07.671Z,23.30
2018-06-19T11:26:36.821Z,23.30
2018-06-19T11:29:04.727Z,23.30
2018-06-19T11:31:32.203Z,23.10
2018-06-19T11:33:59.684Z,23.10
2018-06-19T11:36:27.974Z,23.50
2018-06-19T11:38:55.434Z,23.60
2018-06-19T11:41:22.921Z,23.70
2018-06-19T11:43:50.850Z,24.00
2018-06-19T11:46:18.554Z,24.00
2018-06-19T11:48:45.902Z,24.00
2018-06-19T11:51:13.354Z,24.00
2018-06-19T11:53:40.714Z,24.10
2018-06-19T11:56:08.912Z,24.10
2018-06-19T11:58:36.706Z,24.10
2018-06-19T12:01:04.780Z,24.20
2018-06-19T12:03:32.282Z,24.10
2018-06-19T12:06:00.673Z,24.10
2018-06-19T12:08:28.000Z,23.90
2018-06-19T12:10:55.459Z,24.00
2018-06-19T12:13:22.809Z,23.90
2018-06-19T12:15:50.208Z,23.90
2018-06-19T12:18:18.250Z,23.90
2018-06-19T12:20:46.735Z,23.80
2018-06-19T12:23:14.122Z,24.00
2018-06-19T12:25:41.487Z,24.20
2018-06-19T12:28:08.827Z,24.10
2018-06-19T12:30:36.166Z,24.20
2018-06-19T12:33:03.568Z,23.90
2018-06-19T12:35:30.959Z,24.00
2018-06-19T12:37:58.345Z,24.30
2018-06-19T12:40:25.850Z,24.90
2018-06-19T12:42:53.353Z,24.90
2018-06-19T12:45:20.805Z,24.80
2018-06-19T12:47:48.254Z,24.60
2018-06-19T12:50:38.634Z,24.30
2018-06-19T12:53:17.968Z,24.30
2018-06-19T12:55:57.606Z,24.40
2018-06-19T12:58:24.966Z,24.40
2018-06-19T13:00:52.402Z,24.60
2018-06-19T13:03:31.181Z,24.60
2018-06-19T13:06:40.668Z,24.40
2018-06-19T13:09:08.624Z,24.30
2018-06-19T13:11:36.235Z,24.50
2018-06-19T13:14:15.248Z,24.80
2018-06-19T13:16:54.209Z,24.70
2018-06-19T13:19:33.043Z,24.80
2018-06-19T13:22:00.424Z,24.50
2018-06-19T13:24:27.777Z,24.40
2018-06-19T13:26:55.139Z,24.50
2018-06-19T13:29:35.360Z,24.70
2018-06-19T13:32:03.055Z,24.70
2018-06-19T13:34:31.073Z,24.70
2018-06-19T13:36:58.669Z,25.00
2018-06-19T13:44:55.675Z,25.10
2018-06-19T13:47:23.725Z,24.60
2018-06-19T13:49:51.281Z,24.70
2018-06-19T13:52:18.463Z,24.70
2018-06-19T13:54:45.853Z,25.00
2018-06-19T13:57:44.493Z,25.30
2018-06-19T14:00:14.921Z,25.50
2018-06-19T14:02:42.376Z,25.90
2018-06-19T14:05:10.519Z,26.00
2018-06-19T14:07:46.130Z,25.90
2018-06-19T14:10:26.201Z,26.10
2018-06-19T14:12:57.925Z,26.10
2018-06-19T14:15:26.224Z,26.50
2018-06-19T14:17:53.777Z,26.70
2018-06-19T14:20:21.349Z,26.90
2018-06-19T14:22:48.940Z,27.20
2018-06-19T14:25:16.990Z,27.20
2018-06-19T14:27:44.374Z,26.90
2018-06-19T14:30:11.883Z,26.50
2018-06-19T14:32:42.192Z,26.30
2018-06-19T14:35:10.005Z,26.00
2018-06-19T14:40:05.258Z,26.50
2018-06-19T14:42:32.732Z,26.80
2018-06-19T14:45:00.121Z,27.20
2018-06-19T14:47:28.850Z,26.90
2018-06-19T14:52:23.890Z,26.60
2018-06-19T14:54:51.306Z,26.60
2018-06-19T14:57:18.806Z,26.90
2018-06-19T14:59:46.286Z,26.80
2018-06-19T15:02:13.787Z,26.80
2018-06-19T15:04:41.219Z,26.60
2018-06-19T15:07:08.614Z,26.30
2018-06-19T15:09:36.136Z,26.20
2018-06-19T15:12:03.902Z,25.90
2018-06-19T15:14:31.274Z,26.00
2018-06-19T15:16:58.710Z,26.10
2018-06-19T15:19:26.150Z,26.00
2018-06-19T15:21:53.509Z,25.80
2018-06-19T15:24:20.870Z,25.70
2018-06-19T15:26:48.374Z,25.50
2018-06-19T15:29:15.858Z,25.50
2018-06-19T15:31:43.311Z,25.60
2018-06-19T15:34:10.682Z,25.60
2018-06-19T15:36:38.379Z,25.70
2018-06-19T15:39:08.167Z,25.50
2018-06-19T15:41:35.612Z,25.30
2018-06-19T15:44:02.999Z,25.30
2018-06-19T15:46:30.402Z,25.30
2018-06-19T15:48:57.901Z,25.30
2018-06-19T15:51:25.288Z,25.30
2018-06-19T15:53:52.701Z,25.30
2018-06-19T15:56:20.156Z,25.20
2018-06-19T15:58:47.613Z,25.20
2018-06-19T16:01:15.034Z,25.10
2018-06-19T16:03:42.536Z,25.00
2018-06-19T16:06:09.932Z,25.00
2018-06-19T16:08:37.430Z,25.00
2018-06-19T16:11:04.871Z,25.00
2018-06-19T16:13:32.274Z,25.00
2018-06-19T16:15:59.713Z,25.00
2018-06-19T16:18:27.117Z,24.90
2018-06-19T16:20:54.561Z,24.90
2018-06-19T16:23:21.932Z,25.00
2018-06-19T16:25:49.253Z,25.00
2018-06-19T16:28:16.736Z,25.00
2018-06-19T16:30:44.179Z,25.00
2018-06-19T16:33:11.524Z,25.00
2018-06-19T16:35:38.893Z,25.00
2018-06-19T16:38:06.275Z,24.90
2018-06-19T16:40:33.918Z,24.80
2018-06-19T16:43:01.379Z,24.60
2018-06-19T16:45:28.791Z,24.60
2018-06-19T16:47:56.239Z,24.60
2018-06-19T16:50:23.731Z,24.60
2018-06-19T16:52:51.167Z,24.50
2018-06-19T16:55:21.740Z,24.50
2018-06-19T16:57:49.078Z,24.50
2018-06-19T17:00:16.573Z,24.50
2018-06-19T17:02:43.990Z,24.50
2018-06-19T17:05:11.335Z,24.50
2018-06-19T17:07:40.996Z,24.40
2018-06-19T17:10:09.014Z,24.40
2018-06-19T17:12:36.535Z,24.40
2018-06-19T17:15:04.357Z,24.40
2018-06-19T17:17:31.674Z,24.40
2018-06-19T17:19:59.082Z,24.40
2018-06-19T17:22:26.543Z,24.40
2018-06-19T17:24:53.945Z,24.40
2018-06-19T17:27:21.318Z,24.40
2018-06-19T17:29:48.746Z,24.30
2018-06-19T17:32:16.226Z,24.30
2018-06-19T17:34:43.903Z,24.30
2018-06-19T17:37:11.279Z,24.20
2018-06-19T17:39:38.761Z,24.20
2018-06-19T17:42:06.216Z,24.20
2018-06-19T17:44:33.631Z,24.20
2018-06-19T17:47:01.102Z,24.10
2018-06-19T17:49:28.635Z,24.00
2018-06-19T17:51:56.162Z,24.10
2018-06-19T17:54:23.654Z,24.00
2018-06-19T17:56:51.146Z,24.00
2018-06-19T17:59:18.720Z,23.90
2018-06-19T18:01:46.154Z,23.90
2018-06-19T18:04:13.691Z,23.90
2018-06-19T18:06:41.102Z,23.90
2018-06-19T18:09:10.152Z,23.80
2018-06-19T18:11:37.690Z,23.80
2018-06-19T18:14:05.194Z,23.70
2018-06-19T18:16:33.171Z,23.60
2018-06-19T18:19:00.707Z,23.60
2018-06-19T18:21:28.192Z,23.60
2018-06-19T18:23:55.691Z,23.50
2018-06-19T18:26:23.895Z,23.40
2018-06-19T18:28:51.500Z,23.40
2018-06-19T18:31:18.929Z,23.30
2018-06-19T18:33:46.437Z,23.30
2018-06-19T18:36:13.921Z,23.30
2018-06-19T18:41:08.882Z,23.20
2018-06-19T18:43:36.368Z,23.10
2018-06-19T18:46:03.926Z,23.10
2018-06-19T18:48:31.351Z,23.10
2018-06-19T18:50:58.888Z,23.10
2018-06-19T18:53:26.320Z,23.00
2018-06-19T18:55:54.497Z,23.00
2018-06-19T18:58:22.051Z,22.90
2018-06-19T19:00:49.548Z,22.90
2018-06-19T19:03:16.987Z,22.80
2018-06-19T19:05:44.354Z,22.80
2018-06-19T19:08:17.298Z,22.80
2018-06-19T19:10:47.970Z,22.70
2018-06-19T19:13:16.352Z,22.70
2018-06-19T19:15:49.664Z,22.70
2018-06-19T19:18:22.910Z,22.70
2018-06-19T19:20:50.459Z,22.60
2018-06-19T19:23:17.929Z,22.60
2018-06-19T19:28:18.894Z,22.50
2018-06-19T19:30:46.289Z,22.50
2018-06-19T19:33:13.906Z,22.40
2018-06-19T19:35:41.542Z,22.40
2018-06-19T19:38:14.667Z,22.30
2018-06-19T19:40:42.131Z,22.30
2018-06-19T19:43:11.480Z,22.20
2018-06-19T19:45:38.947Z,22.20
2018-06-19T19:48:12.041Z,22.10
2018-06-19T19:50:39.581Z,22.10
2018-06-19T19:53:07.007Z,22.10
2018-06-19T19:55:36.916Z,22.00
2018-06-19T19:58:10.206Z,22.00
2018-06-19T20:00:37.789Z,22.00
2018-06-19T20:03:05.237Z,22.00
2018-06-19T20:05:32.902Z,22.00
2018-06-19T20:08:00.957Z,21.90
2018-06-19T20:10:28.449Z,21.80
2018-06-19T20:12:56.027Z,21.80
2018-06-19T20:15:23.510Z,21.80
2018-06-19T20:17:51.892Z,21.80
2018-06-19T20:20:19.299Z,21.80
2018-06-19T20:22:47.228Z,21.80
2018-06-19T20:25:14.705Z,21.80
2018-06-19T20:27:42.343Z,21.70
2018-06-19T20:30:10.223Z,21.70
2018-06-19T20:32:37.906Z,21.70
2018-06-19T20:35:05.390Z,21.60
2018-06-19T20:37:32.841Z,21.60
2018-06-19T20:40:00.169Z,21.50
2018-06-19T20:42:27.594Z,21.40
2018-06-19T20:44:55.047Z,21.30
2018-06-19T20:47:22.490Z,21.30
2018-06-19T20:49:50.114Z,21.30
2018-06-19T20:52:17.537Z,21.30
2018-06-19T20:54:44.904Z,21.10
2018-06-19T20:57:12.400Z,20.90
2018-06-19T20:59:39.795Z,20.90
2018-06-19T21:02:07.262Z,20.90
2018-06-19T21:04:34.767Z,20.90
2018-06-19T21:07:02.223Z,20.80
2018-06-19T21:09:29.610Z,20.80
2018-06-19T21:11:57.000Z,20.60
2018-06-19T21:14:24.498Z,20.50
2018-06-19T21:16:51.909Z,20.50
2018-06-19T21:19:19.274Z,20.50
2018-06-19T21:21:46.705Z,20.40
2018-06-19T21:24:14.116Z,20.30
2018-06-19T21:26:41.458Z,20.30
2018-06-19T21:29:08.906Z,20.30
2018-06-19T21:31:36.376Z,20.20
2018-06-19T21:34:03.882Z,20.20
2018-06-19T21:36:31.390Z,20.10
2018-06-19T21:38:58.780Z,20.10
2018-06-19T21:41:26.097Z,20.10
2018-06-19T21:43:53.882Z,20.10
2018-06-19T21:46:21.343Z,20.00
2018-06-19T21:48:48.906Z,19.90
2018-06-19T21:51:16.319Z,19.80
2018-06-19T21:53:43.690Z,19.80
2018-06-19T21:56:11.219Z,19.70
2018-06-19T21:58:38.662Z,19.70
2018-06-19T22:01:06.202Z,19.60
2018-06-19T22:03:33.618Z,19.60
2018-06-19T22:06:01.003Z,19.40
2018-06-19T22:08:32.936Z,19.40
2018-06-19T22:11:00.398Z,19.40
2018-06-19T22:13:27.937Z,19.30
2018-06-19T22:15:55.318Z,19.30
2018-06-19T22:18:22.821Z,19.20
2018-06-19T22:20:50.263Z,19.10
2018-06-19T22:23:17.701Z,19.10
2018-06-19T22:25:45.104Z,19.00
2018-06-19T22:28:12.554Z,18.90
2018-06-19T22:30:39.945Z,18.80
2018-06-19T22:33:07.273Z,18.70
2018-06-19T22:35:34.752Z,18.70
2018-06-19T22:38:02.121Z,18.70
2018-06-19T22:40:29.469Z,18.70
2018-06-19T22:42:56.960Z,18.70
2018-06-19T22:45:24.570Z,18.80
2018-06-19T22:47:51.906Z,18.70
2018-06-19T22:50:19.282Z,18.70
2018-06-19T22:52:46.714Z,18.60
2018-06-19T22:55:14.144Z,18.60
2018-06-19T22:57:41.510Z,18.50
2018-06-19T23:00:08.998Z,18.40
2018-06-19T23:02:36.391Z,18.40
2018-06-19T23:05:03.774Z,18.30
2018-06-19T23:07:31.066Z,18.30
2018-06-19T23:09:58.459Z,18.20
2018-06-19T23:12:25.874Z,18.20
2018-06-19T23:14:53.447Z,18.20
2018-06-19T23:17:20.962Z,18.20
2018-06-19T23:19:48.570Z,18.20
2018-06-19T23:22:15.947Z,18.30
2018-06-19T23:24:43.553Z,18.30
2018-06-19T23:27:11.080Z,18.40
2018-06-19T23:29:38.591Z,18.30
2018-06-19T23:32:05.882Z,18.40
2018-06-19T23:34:33.334Z,18.40
2018-06-19T23:37:00.662Z,18.20
2018-06-19T23:39:27.991Z,18.00
2018-06-19T23:41:55.362Z,18.10
2018-06-19T23:44:22.716Z,17.90
2018-06-19T23:46:50.186Z,17.90
2018-06-19T23:49:17.590Z,17.80
2018-06-19T23:51:44.922Z,17.80
2018-06-19T23:54:12.258Z,17.80
2018-06-19T23:56:39.713Z,17.80
2018-06-19T23:59:07.050Z,17.70
